Flight Track Log - Related Links

Times and Time Zones

All times are in EDT time to prevent confusion due to time zone crossing. See the N9769H flight status page for this flight to view local times or setup timezone preferences in your user account.

Time Position Orientation Groundspeed Altitude Reporting Facility
EDT Latitude Longitude Course Direction KTS MPH feet Rate Location/Type
Fri 05:33:59 PM 39.3500 -84.5667 270° West 150 173 1,900  Level Cincinnati TRACON
Fri 05:34:23 PM 39.3500 -84.5833 270° West 150 173 1,900 429 Level Cincinnati TRACON
Fri 05:35:23 PM 39.3333 -84.6167 237° Southwest 114 131 2,500 600 Climbing Cincinnati TRACON
Fri 05:36:23 PM 39.3167 -84.6500 237° Southwest 100 115 3,100 650 Climbing Cincinnati TRACON
Fri 05:37:23 PM 39.3000 -84.6833 237° Southwest 99 114 3,800 474 Climbing Cincinnati TRACON
Fri 05:38:17 PM 39.3000 -84.7167 270° West 98 113 4,000 158 Climbing Cincinnati TRACON
Fri 05:39:17 PM 39.2833 -84.7500 237° Southwest 125 144 4,100 50 Climbing Cincinnati TRACON
Fri 05:40:17 PM 39.2500 -84.7833 218° Southwest 134 154 4,100  Level Cincinnati TRACON
Fri 05:41:17 PM 39.2333 -84.8333 247° West 129 148 4,100 -50 Level Cincinnati TRACON
Fri 05:42:17 PM 39.2167 -84.8667 237° Southwest 130 150 4,000 -59 Descending Cincinnati TRACON
Fri 05:42:58 PM 39.2111 -84.9017 258° West 128 147 4,000  Level Indianapolis Center
Fri 05:44:00 PM 39.1942 -84.9431 242° Southwest 127 146 4,000  Level Indianapolis Center
Fri 05:45:02 PM 39.1772 -84.9817 240° Southwest 128 147 4,000  Level Indianapolis Center
Fri 05:46:04 PM 39.1581 -85.0256 241° Southwest 127 146 4,000 48 Level Indianapolis Center
Fri 05:47:06 PM 39.1422 -85.0631 241° Southwest 128 147 4,100 48 Climbing Indianapolis Center
Fri 05:48:08 PM 39.1222 -85.1050 238° Southwest 135 155 4,100 -48 Level Indianapolis Center
Fri 05:49:11 PM 39.1039 -85.1497 242° Southwest 126 145 4,000 -96 Descending Indianapolis Center
Fri 05:50:13 PM 39.0867 -85.1892 241° Southwest 126 145 3,900 -48 Descending Indianapolis Center
Fri 05:51:15 PM 39.0686 -85.2292 240° Southwest 127 146 3,900 48 Level Indianapolis Center
Fri 05:52:17 PM 39.0519 -85.2686 241° Southwest 126 145 4,000 97 Climbing Indianapolis Center
Fri 05:53:19 PM 39.0361 -85.3086 243° Southwest 125 144 4,100 48 Climbing Indianapolis Center
Fri 05:54:21 PM 39.0211 -85.3475 244° Southwest 124 143 4,100  Level Indianapolis Center
Fri 05:55:23 PM 39.0031 -85.3944 244° Southwest 124 143 4,100  Level Indianapolis Center
Fri 05:56:25 PM 38.9858 -85.4361 242° Southwest 126 145 4,100  Level Indianapolis Center
Fri 05:57:27 PM 38.9700 -85.4792 245° Southwest 129 148 4,100 -48 Level Indianapolis Center
Fri 05:58:29 PM 38.9539 -85.5233 245° Southwest 132 152 4,000 -48 Descending Indianapolis Center
Fri 05:59:31 PM 38.9369 -85.5647 242° Southwest 131 151 4,000  Level Indianapolis Center
Fri 06:00:33 PM 38.9214 -85.6081 245° Southwest 132 152 4,000 -48 Level Indianapolis Center
Fri 06:01:35 PM 38.9058 -85.6486 244° Southwest 130 150 3,900 -48 Descending Indianapolis Center
Fri 06:02:37 PM 38.8875 -85.6956 243° Southwest 128 147 3,900 48 Level Indianapolis Center
Fri 06:03:39 PM 38.8714 -85.7350 242° Southwest 126 145 4,000  Climbing Indianapolis Center
Fri 06:04:41 PM 38.8561 -85.7772 245° Southwest 127 146 3,900 -48 Descending Indianapolis Center
Fri 06:05:43 PM 38.8414 -85.8194 246° West 128 147 3,900 48 Level Indianapolis Center
Fri 06:06:45 PM 38.8261 -85.8597 244° Southwest 125 144 4,000 48 Climbing Indianapolis Center
Fri 06:07:47 PM 38.8114 -85.8978 244° Southwest 123 142 4,000  Level Indianapolis Center
Fri 06:08:50 PM 38.7947 -85.9458 246° West 123 142 4,000 48 Level Indianapolis Center
Fri 06:09:52 PM 38.7811 -85.9867 247° West 125 144 4,100  Climbing Indianapolis Center
Fri 06:10:54 PM 38.7664 -86.0278 245° Southwest 125 144 4,000 -48 Descending Indianapolis Center
Fri 06:11:56 PM 38.7503 -86.0675 243° Southwest 125 144 4,000  Level Indianapolis Center
Fri 06:12:58 PM 38.7347 -86.1086 244° Southwest 127 146 4,000 290 Level Indianapolis Center
Fri 06:14:00 PM 38.7181 -86.1461 240° Southwest 123 142 4,600 629 Climbing Indianapolis Center
Fri 06:15:02 PM 38.7036 -86.1775 239° Southwest 108 124 5,300 677 Climbing Indianapolis Center
Fri 06:16:04 PM 38.6839 -86.2183 238° Southwest 110 127 6,000 339 Climbing Indianapolis Center
Fri 06:17:06 PM 38.6683 -86.2561 242° Southwest 117 135 6,000  Level Indianapolis Center
Fri 06:18:08 PM 38.6517 -86.2983 243° Southwest 127 146 6,000 48 Level Indianapolis Center
Fri 06:19:10 PM 38.6356 -86.3414 244° Southwest 132 152 6,100 48 Climbing Indianapolis Center
Fri 06:20:12 PM 38.6200 -86.3836 245° Southwest 133 153 6,100  Level Indianapolis Center
Fri 06:21:14 PM 38.6039 -86.4258 244° Southwest 131 151 6,100 -48 Level Indianapolis Center
Fri 06:22:16 PM 38.5869 -86.4667 242° Southwest 131 151 6,000 -48 Descending Indianapolis Center
Fri 06:23:18 PM 38.5667 -86.5164 242° Southwest 131 151 6,000  Level Indianapolis Center
Fri 06:24:20 PM 38.5503 -86.5583 243° Southwest 131 151 6,000 48 Level Indianapolis Center
Fri 06:25:22 PM 38.5336 -86.6014 244° Southwest 133 153 6,100 48 Climbing Indianapolis Center
Fri 06:26:24 PM 38.5175 -86.6447 245° Southwest 134 154 6,100 48 Level Indianapolis Center
Fri 06:27:26 PM 38.5031 -86.6867 246° West 131 151 6,200  Climbing Indianapolis Center
Fri 06:28:28 PM 38.4864 -86.7278 243° Southwest 130 150 6,100 -97 Descending Indianapolis Center
Fri 06:29:30 PM 38.4697 -86.7681 242° Southwest 129 148 6,000 -48 Descending Indianapolis Center
Fri 06:30:32 PM 38.4500 -86.8156 242° Southwest 126 145 6,000 48 Level Indianapolis Center
Fri 06:31:34 PM 38.4339 -86.8561 243° Southwest 127 146 6,100 48 Climbing Indianapolis Center
Fri 06:32:36 PM 38.4169 -86.8947 241° Southwest 125 144 6,100  Level Indianapolis Center
Fri 06:33:39 PM 38.3994 -86.9328 240° Southwest 124 143 6,100  Level Indianapolis Center
Fri 06:34:41 PM 38.3817 -86.9719 240° Southwest 126 145 6,100  Level Indianapolis Center
Fri 06:35:43 PM 38.3642 -87.0106 240° Southwest 127 146 6,100 -48 Level Indianapolis Center
Fri 06:36:45 PM 38.3417 -87.0575 239° Southwest 128 147 6,000 -48 Descending Indianapolis Center
Fri 06:37:47 PM 38.3228 -87.0967 238° Southwest 131 151 6,000 48 Level Indianapolis Center
Fri 06:38:49 PM 38.3031 -87.1358 237° Southwest 133 153 6,100  Climbing Indianapolis Center
Fri 06:39:51 PM 38.2836 -87.1750 238° Southwest 132 152 6,000 -48 Descending Indianapolis Center
Fri 06:40:53 PM 38.2636 -87.2144 237° Southwest 132 152 6,000 48 Level Indianapolis Center
Fri 06:41:55 PM 38.2444 -87.2606 242° Southwest 128 147 6,100 48 Climbing Indianapolis Center
Fri 06:42:57 PM 38.2294 -87.2989 244° Southwest 123 142 6,100 -48 Level Indianapolis Center
Fri 06:43:59 PM 38.2136 -87.3378 243° Southwest 123 142 6,000 -48 Descending Indianapolis Center
Fri 06:45:01 PM 38.1975 -87.3775 243° Southwest 124 143 6,000  Level Indianapolis Center
Fri 06:46:03 PM 38.1814 -87.4167 242° Southwest 124 143 6,000  Level Indianapolis Center
Fri 06:47:05 PM 38.1650 -87.4550 241° Southwest 124 143 6,000  Level Indianapolis Center
Fri 06:48:07 PM 38.1486 -87.4944 242° Southwest 124 143 6,000 -48 Level Indianapolis Center
Fri 06:49:09 PM 38.1292 -87.5389 241° Southwest 122 140 5,900  Descending Indianapolis Center
Fri 06:50:11 PM 38.1119 -87.5753 239° Southwest 121 139 6,000 48 Climbing Indianapolis Center
Fri 06:51:13 PM 38.0936 -87.6119 238° Southwest 121 139 6,000  Level Indianapolis Center
Fri 06:52:15 PM 38.0756 -87.6486 238° Southwest 121 139 6,000  Level Indianapolis Center
Fri 06:53:17 PM 38.0578 -87.6850 238° Southwest 121 139 6,000 48 Level Indianapolis Center
Fri 06:54:19 PM 38.0406 -87.7214 239° Southwest 121 139 6,100 48 Climbing Indianapolis Center
Fri 06:55:21 PM 38.0239 -87.7592 241° Southwest 121 139 6,100  Level Indianapolis Center
Fri 06:56:23 PM 38.0067 -87.8053 245° Southwest 120 138 6,100 48 Level Indianapolis Center
Fri 06:57:25 PM 37.9917 -87.8431 243° Southwest 120 138 6,200 48 Climbing Indianapolis Center
Fri 06:58:27 PM 37.9769 -87.8814 244° Southwest 121 139 6,200  Level Indianapolis Center
Fri 06:59:29 PM 37.9628 -87.9197 245° Southwest 120 138 6,200 -49 Level Indianapolis Center
Fri 07:00:30 PM 37.9481 -87.9600 245° Southwest 123 142 6,100 -98 Descending Indianapolis Center
Fri 07:01:32 PM 37.9322 -87.9994 243° Southwest 124 143 6,000 -48 Descending Indianapolis Center
Fri 07:02:34 PM 37.9158 -88.0392 242° Southwest 126 145 6,000  Level Indianapolis Center
Fri 07:03:36 PM 37.9000 -88.0789 243° Southwest 126 145 6,000  Level Indianapolis Center
Fri 07:04:38 PM 37.8800 -88.1261 242° Southwest 127 146 6,000  Level Indianapolis Center
Fri 07:05:40 PM 37.8619 -88.1656 240° Southwest 128 147 6,000 48 Level Indianapolis Center
Fri 07:06:42 PM 37.8444 -88.2039 240° Southwest 127 146 6,100 49 Climbing Indianapolis Center
Fri 07:07:43 PM 37.8283 -88.2433 243° Southwest 127 146 6,100  Level Indianapolis Center
Fri 07:08:45 PM 37.8103 -88.2814 239° Southwest 126 145 6,100  Level Indianapolis Center
Fri 07:09:47 PM 37.7931 -88.3186 240° Southwest 125 144 6,100  Level Indianapolis Center
Fri 07:10:49 PM 37.7731 -88.3550 235° Southwest 124 143 6,100  Level Indianapolis Center
Fri 07:11:50 PM 37.7528 -88.3900 234° Southwest 124 143 6,100 -49 Level Indianapolis Center
Fri 07:12:52 PM 37.7319 -88.4353 240° Southwest 123 142 6,000 -47 Descending Indianapolis Center
Fri 07:13:57 PM 37.7175 -88.4722 244° Southwest 123 142 6,000  Level Memphis Center
Fri 07:14:57 PM 37.7014 -88.5119 243° Southwest 123 142 6,000 50 Level Memphis Center
Fri 07:15:57 PM 37.6833 -88.5542 242° Southwest 140 161 6,100 45 Climbing Memphis Center
Fri 07:17:11 PM 37.6628 -88.5925 236° Southwest 122 140 6,100 -44 Level Kansas City Center
Fri 07:18:13 PM 37.6464 -88.6303 241° Southwest 123 142 6,000 -48 Descending Kansas City Center
Fri 07:19:16 PM 37.6283 -88.6656 237° Southwest 121 139 6,000 58 Level Kansas City Center
Fri 07:19:57 PM 37.6144 -88.7050 246° West 124 143 6,100 59 Climbing Memphis Center
Fri 07:20:57 PM 37.5983 -88.7419 241° Southwest 124 143 6,100  Level Memphis Center
Fri 07:21:57 PM 37.5800 -88.7686 229° Southwest 119 137 6,100  Level Memphis Center
Fri 07:22:57 PM 37.5639 -88.8081 243° Southwest 119 137 6,100  Level Memphis Center
Fri 07:23:57 PM 37.5478 -88.8478 243° Southwest 125 144 6,100  Level Memphis Center
Fri 07:24:57 PM 37.5336 -88.8819 242° Southwest 125 144 6,100 -50 Level Memphis Center
Fri 07:25:57 PM 37.5172 -88.9164 239° Southwest 120 138 6,000  Descending Memphis Center
Fri 07:26:57 PM 37.5011 -88.9531 241° Southwest 120 138 6,100 -50 Climbing Memphis Center
Fri 07:27:57 PM 37.4869 -88.9978 248° West 128 147 5,900 -400 Descending Memphis Center
Fri 07:28:57 PM 37.4728 -89.0319 242° Southwest 128 147 5,300 -600 Descending Memphis Center
Fri 07:29:57 PM 37.4586 -89.0714 246° West 133 153 4,700 -600 Descending Memphis Center
Fri 07:30:57 PM 37.4422 -89.1083 241° Southwest 139 160 4,100 -600 Descending Memphis Center
Fri 07:31:37 PM 37.4319 -89.1275 236° Southwest 130 150 3,700 -713 Descending Kansas City Center
Fri 07:32:38 PM 37.4081 -89.1731 237° Southwest 131 151 2,900 -545 Descending Kansas City Center
Fri 07:33:38 PM 37.3894 -89.2139 240° Southwest 132 152 2,600 -98 Descending Kansas City Center
Fri 07:34:41 PM 37.3711 -89.2517 239° Southwest 131 151 2,700 76 Climbing Kansas City Center
Fri 07:34:57 PM 37.3667 -89.2661 249° West 134 154 2,700  Level Memphis Center
Fri 07:35:57 PM 37.3503 -89.3056 242° Southwest 129 148 2,700 -50 Level Memphis Center
Fri 07:36:57 PM 37.3339 -89.3397 239° Southwest 129 148 2,600  Descending Memphis Center
Fri 07:37:57 PM 37.3156 -89.3736 236° Southwest 123 142 2,700 100 Climbing Memphis Center

Login

Don't have an account? Register now (free) for customized features, flight alerts, and more!